Jefferson Proving Ground, Indiana
Current Conditions -  °F | °C
As of 9:53 PM on Thursday 27 Nov 2014 (Local Time) from KLOU Reporting Station
Overcast Overcast  
Wind Chill: 25°   Ceiling: 4100
Heat Index: 30°   Visibility: 10mi
Dew Point: 21°   Wind: 5mph
Humidity: 69%   Direction: 270°W
Pressure: 30.44"   Gusts: NA
Location:  38.7969°N, 85.4186°W
Report Text: KLOU 280253Z 27004KT 10SM OVC041 M01/M06 A3044 RMK AO2 SLP315 T10111061 50004
Loading
Personal Weather Stations






























Interactive Weather Map New forecast layout! Learn more

10-Day Weather Forecast

Advertisements
Track Severe Weather on mobile